sensor_id;sensor_type;location;lat;lon;timestamp;P1;durP1;ratioP1;P2;durP2;ratioP2
4857;SDS011;58975;51.978;8.472;2022-12-20T00:06:25;5.87;;;3.57;;
4857;SDS011;58975;51.978;8.472;2022-12-20T00:11:22;11.95;;;4.45;;
4857;SDS011;58975;51.978;8.472;2022-12-20T00:16:20;10.53;;;4.20;;
4857;SDS011;58975;51.978;8.472;2022-12-20T00:21:18;7.30;;;5.35;;
4857;SDS011;58975;51.978;8.472;2022-12-20T00:26:16;8.30;;;4.63;;
4857;SDS011;58975;51.978;8.472;2022-12-20T00:31:15;6.97;;;3.53;;
4857;SDS011;58975;51.978;8.472;2022-12-20T00:36:13;7.47;;;4.25;;
4857;SDS011;58975;51.978;8.472;2022-12-20T00:41:14;5.68;;;3.78;;
4857;SDS011;58975;51.978;8.472;2022-12-20T00:46:12;6.95;;;3.92;;
4857;SDS011;58975;51.978;8.472;2022-12-20T00:51:11;6.85;;;3.63;;
4857;SDS011;58975;51.978;8.472;2022-12-20T00:56:10;6.60;;;3.63;;
4857;SDS011;58975;51.978;8.472;2022-12-20T01:01:15;4.97;;;3.67;;
4857;SDS011;58975;51.978;8.472;2022-12-20T01:06:17;4.57;;;3.40;;
4857;SDS011;58975;51.978;8.472;2022-12-20T01:11:15;6.40;;;3.77;;
4857;SDS011;58975;51.978;8.472;2022-12-20T01:16:14;4.40;;;3.15;;
4857;SDS011;58975;51.978;8.472;2022-12-20T01:21:17;5.47;;;2.75;;
4857;SDS011;58975;51.978;8.472;2022-12-20T01:26:16;4.40;;;2.83;;
4857;SDS011;58975;51.978;8.472;2022-12-20T01:31:15;3.35;;;2.35;;
4857;SDS011;58975;51.978;8.472;2022-12-20T01:36:14;4.00;;;2.40;;
4857;SDS011;58975;51.978;8.472;2022-12-20T01:41:17;2.92;;;2.72;;
4857;SDS011;58975;51.978;8.472;2022-12-20T01:46:15;4.15;;;2.63;;
4857;SDS011;58975;51.978;8.472;2022-12-20T01:51:12;5.25;;;2.28;;
4857;SDS011;58975;51.978;8.472;2022-12-20T01:56:08;2.90;;;2.17;;
4857;SDS011;58975;51.978;8.472;2022-12-20T02:01:06;2.50;;;2.30;;
4857;SDS011;58975;51.978;8.472;2022-12-20T02:06:19;3.88;;;2.47;;
4857;SDS011;58975;51.978;8.472;2022-12-20T02:16:25;4.30;;;2.25;;
4857;SDS011;58975;51.978;8.472;2022-12-20T02:36:57;3.72;;;2.22;;
4857;SDS011;58975;51.978;8.472;2022-12-20T02:41:56;3.58;;;2.13;;
4857;SDS011;58975;51.978;8.472;2022-12-20T02:46:59;5.47;;;1.88;;
4857;SDS011;58975;51.978;8.472;2022-12-20T02:51:58;3.55;;;1.92;;
4857;SDS011;58975;51.978;8.472;2022-12-20T03:01:59;2.45;;;2.00;;
4857;SDS011;58975;51.978;8.472;2022-12-20T03:07:04;5.88;;;2.28;;
4857;SDS011;58975;51.978;8.472;2022-12-20T03:12:03;3.47;;;2.08;;
4857;SDS011;58975;51.978;8.472;2022-12-20T03:16:59;3.67;;;1.70;;
4857;SDS011;58975;51.978;8.472;2022-12-20T03:21:57;1.83;;;1.60;;
4857;SDS011;58975;51.978;8.472;2022-12-20T03:26:54;4.93;;;2.17;;
4857;SDS011;58975;51.978;8.472;2022-12-20T03:31:50;6.07;;;1.95;;
4857;SDS011;58975;51.978;8.472;2022-12-20T03:36:47;2.72;;;1.90;;
4857;SDS011;58975;51.978;8.472;2022-12-20T03:41:43;3.35;;;1.92;;
4857;SDS011;58975;51.978;8.472;2022-12-20T03:46:39;2.72;;;1.73;;
4857;SDS011;58975;51.978;8.472;2022-12-20T03:51:36;4.97;;;2.20;;
4857;SDS011;58975;51.978;8.472;2022-12-20T03:56:32;2.75;;;1.80;;
4857;SDS011;58975;51.978;8.472;2022-12-20T04:01:29;4.25;;;2.55;;
4857;SDS011;58975;51.978;8.472;2022-12-20T04:06:25;3.67;;;2.45;;
4857;SDS011;58975;51.978;8.472;2022-12-20T04:11:22;4.10;;;2.00;;
4857;SDS011;58975;51.978;8.472;2022-12-20T04:16:24;5.07;;;2.25;;
4857;SDS011;58975;51.978;8.472;2022-12-20T04:21:26;3.55;;;2.13;;
4857;SDS011;58975;51.978;8.472;2022-12-20T04:26:25;2.80;;;2.10;;
4857;SDS011;58975;51.978;8.472;2022-12-20T04:31:22;3.15;;;1.90;;
4857;SDS011;58975;51.978;8.472;2022-12-20T04:36:20;4.83;;;2.17;;
4857;SDS011;58975;51.978;8.472;2022-12-20T04:41:17;3.42;;;2.20;;
4857;SDS011;58975;51.978;8.472;2022-12-20T04:46:23;3.70;;;2.00;;
4857;SDS011;58975;51.978;8.472;2022-12-20T04:51:21;5.75;;;2.55;;
4857;SDS011;58975;51.978;8.472;2022-12-20T05:01:15;4.60;;;2.43;;
4857;SDS011;58975;51.978;8.472;2022-12-20T05:06:13;7.43;;;3.28;;
4857;SDS011;58975;51.978;8.472;2022-12-20T05:11:09;6.55;;;2.47;;
4857;SDS011;58975;51.978;8.472;2022-12-20T05:16:06;3.72;;;2.65;;
4857;SDS011;58975;51.978;8.472;2022-12-20T05:21:03;8.07;;;2.85;;
4857;SDS011;58975;51.978;8.472;2022-12-20T05:26:18;3.13;;;2.60;;
4857;SDS011;58975;51.978;8.472;2022-12-20T05:31:15;5.45;;;2.53;;
4857;SDS011;58975;51.978;8.472;2022-12-20T05:36:12;5.43;;;2.50;;
4857;SDS011;58975;51.978;8.472;2022-12-20T05:41:08;12.68;;;3.55;;
4857;SDS011;58975;51.978;8.472;2022-12-20T05:46:05;8.68;;;2.90;;
4857;SDS011;58975;51.978;8.472;2022-12-20T05:51:01;6.25;;;2.83;;
4857;SDS011;58975;51.978;8.472;2022-12-20T05:55:58;6.50;;;3.00;;
4857;SDS011;58975;51.978;8.472;2022-12-20T06:00:55;5.53;;;3.25;;
4857;SDS011;58975;51.978;8.472;2022-12-20T06:05:51;5.15;;;3.00;;
4857;SDS011;58975;51.978;8.472;2022-12-20T06:10:48;8.13;;;3.58;;
4857;SDS011;58975;51.978;8.472;2022-12-20T06:15:45;6.28;;;3.17;;
4857;SDS011;58975;51.978;8.472;2022-12-20T06:20:41;6.60;;;3.17;;
4857;SDS011;58975;51.978;8.472;2022-12-20T06:25:38;11.35;;;3.88;;
4857;SDS011;58975;51.978;8.472;2022-12-20T06:30:34;8.35;;;4.47;;
4857;SDS011;58975;51.978;8.472;2022-12-20T06:35:31;9.60;;;4.05;;
4857;SDS011;58975;51.978;8.472;2022-12-20T06:40:28;10.10;;;4.57;;
4857;SDS011;58975;51.978;8.472;2022-12-20T06:45:24;14.23;;;4.15;;
4857;SDS011;58975;51.978;8.472;2022-12-20T06:50:21;13.75;;;4.45;;
4857;SDS011;58975;51.978;8.472;2022-12-20T06:55:17;12.80;;;5.10;;
4857;SDS011;58975;51.978;8.472;2022-12-20T07:00:14;14.43;;;4.40;;
4857;SDS011;58975;51.978;8.472;2022-12-20T07:05:11;8.43;;;4.43;;
4857;SDS011;58975;51.978;8.472;2022-12-20T07:10:08;8.82;;;4.30;;
4857;SDS011;58975;51.978;8.472;2022-12-20T07:15:05;9.65;;;4.78;;
4857;SDS011;58975;51.978;8.472;2022-12-20T07:20:02;12.33;;;4.43;;
4857;SDS011;58975;51.978;8.472;2022-12-20T07:25:08;10.27;;;5.30;;
4857;SDS011;58975;51.978;8.472;2022-12-20T07:30:06;14.67;;;6.23;;
4857;SDS011;58975;51.978;8.472;2022-12-20T07:35:03;16.23;;;6.82;;
4857;SDS011;58975;51.978;8.472;2022-12-20T07:40:00;19.08;;;6.75;;
4857;SDS011;58975;51.978;8.472;2022-12-20T07:44:56;18.05;;;7.93;;
4857;SDS011;58975;51.978;8.472;2022-12-20T07:49:53;14.95;;;7.80;;
4857;SDS011;58975;51.978;8.472;2022-12-20T07:54:50;20.30;;;9.07;;
4857;SDS011;58975;51.978;8.472;2022-12-20T07:59:53;20.15;;;8.68;;
4857;SDS011;58975;51.978;8.472;2022-12-20T08:04:51;23.08;;;9.40;;
4857;SDS011;58975;51.978;8.472;2022-12-20T08:09:49;18.57;;;8.40;;
4857;SDS011;58975;51.978;8.472;2022-12-20T08:14:45;19.17;;;9.68;;
4857;SDS011;58975;51.978;8.472;2022-12-20T08:19:42;16.67;;;9.07;;
4857;SDS011;58975;51.978;8.472;2022-12-20T08:24:38;15.60;;;8.13;;
4857;SDS011;58975;51.978;8.472;2022-12-20T08:29:35;14.27;;;9.40;;
4857;SDS011;58975;51.978;8.472;2022-12-20T08:34:32;15.40;;;7.65;;
4857;SDS011;58975;51.978;8.472;2022-12-20T08:39:28;18.42;;;8.77;;
4857;SDS011;58975;51.978;8.472;2022-12-20T08:44:25;15.20;;;8.25;;
4857;SDS011;58975;51.978;8.472;2022-12-20T08:49:21;18.98;;;8.57;;
4857;SDS011;58975;51.978;8.472;2022-12-20T08:54:18;11.23;;;7.22;;
4857;SDS011;58975;51.978;8.472;2022-12-20T08:59:14;12.45;;;6.15;;
4857;SDS011;58975;51.978;8.472;2022-12-20T09:04:11;19.85;;;7.90;;
4857;SDS011;58975;51.978;8.472;2022-12-20T09:09:08;12.73;;;7.45;;
4857;SDS011;58975;51.978;8.472;2022-12-20T09:14:04;10.70;;;6.63;;
4857;SDS011;58975;51.978;8.472;2022-12-20T09:19:01;8.93;;;5.70;;
4857;SDS011;58975;51.978;8.472;2022-12-20T09:24:01;19.60;;;6.40;;
4857;SDS011;58975;51.978;8.472;2022-12-20T09:28:58;9.20;;;4.97;;
4857;SDS011;58975;51.978;8.472;2022-12-20T09:33:54;8.90;;;5.20;;
4857;SDS011;58975;51.978;8.472;2022-12-20T09:38:53;10.45;;;6.00;;
4857;SDS011;58975;51.978;8.472;2022-12-20T09:43:50;9.95;;;5.22;;
4857;SDS011;58975;51.978;8.472;2022-12-20T09:48:47;10.23;;;5.28;;
4857;SDS011;58975;51.978;8.472;2022-12-20T09:59:17;11.55;;;5.57;;
4857;SDS011;58975;51.978;8.472;2022-12-20T10:04:20;9.40;;;4.78;;
4857;SDS011;58975;51.978;8.472;2022-12-20T10:14:42;5.85;;;4.07;;
4857;SDS011;58975;51.978;8.472;2022-12-20T10:20:21;5.47;;;3.92;;
4857;SDS011;58975;51.978;8.472;2022-12-20T10:25:28;7.72;;;4.00;;
4857;SDS011;58975;51.978;8.472;2022-12-20T10:30:31;7.60;;;4.22;;
4857;SDS011;58975;51.978;8.472;2022-12-20T10:35:38;9.65;;;4.30;;
4857;SDS011;58975;51.978;8.472;2022-12-20T10:40:39;6.03;;;4.32;;
4857;SDS011;58975;51.978;8.472;2022-12-20T10:46:05;9.18;;;4.15;;
4857;SDS011;58975;51.978;8.472;2022-12-20T10:56:28;8.30;;;4.75;;
4857;SDS011;58975;51.978;8.472;2022-12-20T11:01:32;9.35;;;4.43;;
4857;SDS011;58975;51.978;8.472;2022-12-20T11:11:34;7.03;;;4.25;;
4857;SDS011;58975;51.978;8.472;2022-12-20T11:16:39;6.93;;;4.47;;
4857;SDS011;58975;51.978;8.472;2022-12-20T11:37:20;5.95;;;3.88;;
4857;SDS011;58975;51.978;8.472;2022-12-20T11:42:42;8.50;;;3.58;;
4857;SDS011;58975;51.978;8.472;2022-12-20T11:47:51;5.65;;;3.63;;
4857;SDS011;58975;51.978;8.472;2022-12-20T11:53:31;4.18;;;2.97;;
4857;SDS011;58975;51.978;8.472;2022-12-20T11:58:45;4.80;;;3.33;;
4857;SDS011;58975;51.978;8.472;2022-12-20T12:03:58;5.55;;;3.38;;
4857;SDS011;58975;51.978;8.472;2022-12-20T12:14:03;5.65;;;2.90;;
4857;SDS011;58975;51.978;8.472;2022-12-20T12:19:01;7.38;;;2.92;;
4857;SDS011;58975;51.978;8.472;2022-12-20T12:24:11;7.15;;;2.85;;
4857;SDS011;58975;51.978;8.472;2022-12-20T12:29:11;3.80;;;2.72;;
4857;SDS011;58975;51.978;8.472;2022-12-20T12:45:14;7.60;;;3.10;;
4857;SDS011;58975;51.978;8.472;2022-12-20T12:50:57;5.07;;;2.80;;
4857;SDS011;58975;51.978;8.472;2022-12-20T12:55:48;5.72;;;2.78;;
4857;SDS011;58975;51.978;8.472;2022-12-20T13:05:50;7.07;;;2.85;;
4857;SDS011;58975;51.978;8.472;2022-12-20T13:20:39;5.18;;;2.75;;
4857;SDS011;58975;51.978;8.472;2022-12-20T13:25:37;2.83;;;1.80;;
4857;SDS011;58975;51.978;8.472;2022-12-20T13:30:42;2.53;;;1.67;;
4857;SDS011;58975;51.978;8.472;2022-12-20T13:35:43;9.50;;;2.10;;
4857;SDS011;58975;51.978;8.472;2022-12-20T13:40:49;3.35;;;1.95;;
4857;SDS011;58975;51.978;8.472;2022-12-20T13:51:04;4.28;;;1.48;;
4857;SDS011;58975;51.978;8.472;2022-12-20T14:01:18;4.90;;;1.83;;
4857;SDS011;58975;51.978;8.472;2022-12-20T14:06:19;3.35;;;1.70;;
4857;SDS011;58975;51.978;8.472;2022-12-20T14:11:23;2.20;;;1.52;;
4857;SDS011;58975;51.978;8.472;2022-12-20T14:16:25;4.53;;;1.60;;
4857;SDS011;58975;51.978;8.472;2022-12-20T14:21:23;4.75;;;1.60;;
4857;SDS011;58975;51.978;8.472;2022-12-20T14:26:26;1.75;;;1.40;;
4857;SDS011;58975;51.978;8.472;2022-12-20T14:36:23;3.45;;;1.50;;
4857;SDS011;58975;51.978;8.472;2022-12-20T14:46:34;3.35;;;1.63;;
4857;SDS011;58975;51.978;8.472;2022-12-20T14:51:31;2.95;;;1.70;;
4857;SDS011;58975;51.978;8.472;2022-12-20T14:56:27;6.63;;;1.90;;
4857;SDS011;58975;51.978;8.472;2022-12-20T15:01:30;4.15;;;2.00;;
4857;SDS011;58975;51.978;8.472;2022-12-20T15:06:42;3.13;;;2.10;;
4857;SDS011;58975;51.978;8.472;2022-12-20T15:11:40;4.97;;;3.23;;
4857;SDS011;58975;51.978;8.472;2022-12-20T15:16:44;6.70;;;2.67;;
4857;SDS011;58975;51.978;8.472;2022-12-20T15:21:42;2.85;;;2.10;;
4857;SDS011;58975;51.978;8.472;2022-12-20T15:26:40;4.72;;;2.10;;
4857;SDS011;58975;51.978;8.472;2022-12-20T15:31:37;4.65;;;2.70;;
4857;SDS011;58975;51.978;8.472;2022-12-20T15:36:34;4.88;;;2.70;;
4857;SDS011;58975;51.978;8.472;2022-12-20T15:41:31;6.45;;;3.30;;
4857;SDS011;58975;51.978;8.472;2022-12-20T15:46:29;9.98;;;3.80;;
4857;SDS011;58975;51.978;8.472;2022-12-20T15:51:27;14.07;;;5.18;;
4857;SDS011;58975;51.978;8.472;2022-12-20T15:56:27;14.55;;;4.63;;
4857;SDS011;58975;51.978;8.472;2022-12-20T16:06:20;4.68;;;3.38;;
4857;SDS011;58975;51.978;8.472;2022-12-20T16:16:34;9.38;;;4.50;;
4857;SDS011;58975;51.978;8.472;2022-12-20T16:21:33;5.85;;;4.07;;
4857;SDS011;58975;51.978;8.472;2022-12-20T16:26:31;5.75;;;3.65;;
4857;SDS011;58975;51.978;8.472;2022-12-20T16:31:37;7.95;;;3.42;;
4857;SDS011;58975;51.978;8.472;2022-12-20T16:36:35;11.45;;;4.15;;
4857;SDS011;58975;51.978;8.472;2022-12-20T16:41:32;6.72;;;3.70;;
4857;SDS011;58975;51.978;8.472;2022-12-20T16:46:29;7.20;;;3.92;;
4857;SDS011;58975;51.978;8.472;2022-12-20T16:51:31;9.15;;;4.90;;
4857;SDS011;58975;51.978;8.472;2022-12-20T16:56:34;17.55;;;4.72;;
4857;SDS011;58975;51.978;8.472;2022-12-20T17:01:32;11.82;;;4.85;;
4857;SDS011;58975;51.978;8.472;2022-12-20T17:06:30;10.68;;;4.68;;
4857;SDS011;58975;51.978;8.472;2022-12-20T17:11:28;8.25;;;4.85;;
4857;SDS011;58975;51.978;8.472;2022-12-20T17:16:27;10.70;;;4.40;;
4857;SDS011;58975;51.978;8.472;2022-12-20T17:21:28;8.32;;;4.32;;
4857;SDS011;58975;51.978;8.472;2022-12-20T17:26:49;6.55;;;4.25;;
4857;SDS011;58975;51.978;8.472;2022-12-20T17:31:45;10.57;;;4.88;;
4857;SDS011;58975;51.978;8.472;2022-12-20T17:36:43;11.25;;;5.20;;
4857;SDS011;58975;51.978;8.472;2022-12-20T17:41:40;10.13;;;4.72;;
4857;SDS011;58975;51.978;8.472;2022-12-20T17:46:37;10.27;;;5.00;;
4857;SDS011;58975;51.978;8.472;2022-12-20T17:51:34;11.20;;;6.07;;
4857;SDS011;58975;51.978;8.472;2022-12-20T17:56:31;16.08;;;5.28;;
4857;SDS011;58975;51.978;8.472;2022-12-20T18:01:30;10.38;;;5.22;;
4857;SDS011;58975;51.978;8.472;2022-12-20T18:06:32;12.73;;;5.65;;
4857;SDS011;58975;51.978;8.472;2022-12-20T18:11:30;9.48;;;5.07;;
4857;SDS011;58975;51.978;8.472;2022-12-20T18:16:29;12.25;;;6.05;;
4857;SDS011;58975;51.978;8.472;2022-12-20T18:21:27;8.55;;;4.68;;
4857;SDS011;58975;51.978;8.472;2022-12-20T18:26:28;6.72;;;4.88;;
4857;SDS011;58975;51.978;8.472;2022-12-20T18:31:27;8.27;;;5.30;;
4857;SDS011;58975;51.978;8.472;2022-12-20T18:36:32;15.57;;;5.50;;
4857;SDS011;58975;51.978;8.472;2022-12-20T18:41:30;10.13;;;5.63;;
4857;SDS011;58975;51.978;8.472;2022-12-20T18:46:27;11.10;;;5.10;;
4857;SDS011;58975;51.978;8.472;2022-12-20T18:51:26;8.80;;;5.67;;
4857;SDS011;58975;51.978;8.472;2022-12-20T18:56:31;8.75;;;5.38;;
4857;SDS011;58975;51.978;8.472;2022-12-20T19:01:31;9.88;;;6.00;;
4857;SDS011;58975;51.978;8.472;2022-12-20T19:06:28;10.48;;;5.50;;
4857;SDS011;58975;51.978;8.472;2022-12-20T19:11:26;11.50;;;6.18;;
4857;SDS011;58975;51.978;8.472;2022-12-20T19:16:25;13.02;;;6.63;;
4857;SDS011;58975;51.978;8.472;2022-12-20T19:21:28;10.63;;;5.45;;
4857;SDS011;58975;51.978;8.472;2022-12-20T19:26:27;12.02;;;5.25;;
4857;SDS011;58975;51.978;8.472;2022-12-20T19:31:25;11.10;;;5.37;;
4857;SDS011;58975;51.978;8.472;2022-12-20T19:36:25;5.57;;;4.65;;
4857;SDS011;58975;51.978;8.472;2022-12-20T19:41:26;6.43;;;5.10;;
4857;SDS011;58975;51.978;8.472;2022-12-20T19:46:27;9.02;;;5.70;;
4857;SDS011;58975;51.978;8.472;2022-12-20T19:51:26;9.23;;;5.18;;
4857;SDS011;58975;51.978;8.472;2022-12-20T19:56:24;9.98;;;4.95;;
4857;SDS011;58975;51.978;8.472;2022-12-20T20:01:22;7.90;;;5.45;;
4857;SDS011;58975;51.978;8.472;2022-12-20T20:06:22;10.30;;;5.70;;
4857;SDS011;58975;51.978;8.472;2022-12-20T20:11:18;8.32;;;5.47;;
4857;SDS011;58975;51.978;8.472;2022-12-20T20:16:16;10.65;;;5.40;;
4857;SDS011;58975;51.978;8.472;2022-12-20T20:21:19;9.32;;;6.20;;
4857;SDS011;58975;51.978;8.472;2022-12-20T20:26:19;13.77;;;6.47;;
4857;SDS011;58975;51.978;8.472;2022-12-20T20:31:20;11.95;;;6.20;;
4857;SDS011;58975;51.978;8.472;2022-12-20T20:36:18;13.13;;;6.85;;
4857;SDS011;58975;51.978;8.472;2022-12-20T20:41:16;11.13;;;7.28;;
4857;SDS011;58975;51.978;8.472;2022-12-20T20:46:14;11.48;;;7.38;;
4857;SDS011;58975;51.978;8.472;2022-12-20T20:51:11;21.67;;;8.00;;
4857;SDS011;58975;51.978;8.472;2022-12-20T20:56:08;16.92;;;7.65;;
4857;SDS011;58975;51.978;8.472;2022-12-20T21:01:05;18.70;;;8.52;;
4857;SDS011;58975;51.978;8.472;2022-12-20T21:06:04;15.75;;;8.20;;
4857;SDS011;58975;51.978;8.472;2022-12-20T21:11:22;13.80;;;8.93;;
4857;SDS011;58975;51.978;8.472;2022-12-20T21:16:19;13.57;;;7.68;;
4857;SDS011;58975;51.978;8.472;2022-12-20T21:21:17;14.18;;;7.63;;
4857;SDS011;58975;51.978;8.472;2022-12-20T21:26:14;11.65;;;7.13;;
4857;SDS011;58975;51.978;8.472;2022-12-20T21:31:13;10.77;;;6.43;;
4857;SDS011;58975;51.978;8.472;2022-12-20T21:36:12;13.05;;;7.75;;
4857;SDS011;58975;51.978;8.472;2022-12-20T21:41:10;11.73;;;7.03;;
4857;SDS011;58975;51.978;8.472;2022-12-20T21:46:08;16.85;;;7.30;;
4857;SDS011;58975;51.978;8.472;2022-12-20T21:51:08;14.02;;;7.25;;
4857;SDS011;58975;51.978;8.472;2022-12-20T21:56:08;17.23;;;8.00;;
4857;SDS011;58975;51.978;8.472;2022-12-20T22:01:06;11.60;;;7.30;;
4857;SDS011;58975;51.978;8.472;2022-12-20T22:06:03;13.82;;;7.55;;
4857;SDS011;58975;51.978;8.472;2022-12-20T22:11:01;8.30;;;5.68;;
4857;SDS011;58975;51.978;8.472;2022-12-20T22:16:05;9.52;;;6.07;;
4857;SDS011;58975;51.978;8.472;2022-12-20T22:21:03;10.13;;;6.93;;
4857;SDS011;58975;51.978;8.472;2022-12-20T22:26:00;9.70;;;6.57;;
4857;SDS011;58975;51.978;8.472;2022-12-20T22:30:58;10.18;;;7.13;;
4857;SDS011;58975;51.978;8.472;2022-12-20T22:35:57;9.45;;;6.78;;
4857;SDS011;58975;51.978;8.472;2022-12-20T22:40:54;9.73;;;6.70;;
4857;SDS011;58975;51.978;8.472;2022-12-20T22:45:57;11.73;;;7.65;;
4857;SDS011;58975;51.978;8.472;2022-12-20T22:50:58;11.10;;;7.55;;
4857;SDS011;58975;51.978;8.472;2022-12-20T22:55:55;11.35;;;7.43;;
4857;SDS011;58975;51.978;8.472;2022-12-20T23:01:02;8.30;;;7.00;;
4857;SDS011;58975;51.978;8.472;2022-12-20T23:06:01;9.80;;;6.43;;
4857;SDS011;58975;51.978;8.472;2022-12-20T23:16:16;10.15;;;7.55;;
4857;SDS011;58975;51.978;8.472;2022-12-20T23:21:12;11.45;;;7.18;;
4857;SDS011;58975;51.978;8.472;2022-12-20T23:26:28;11.38;;;6.57;;
4857;SDS011;58975;51.978;8.472;2022-12-20T23:31:24;9.85;;;7.30;;
4857;SDS011;58975;51.978;8.472;2022-12-20T23:36:20;11.65;;;7.05;;
4857;SDS011;58975;51.978;8.472;2022-12-20T23:41:17;11.45;;;7.10;;
4857;SDS011;58975;51.978;8.472;2022-12-20T23:46:14;15.57;;;7.55;;
4857;SDS011;58975;51.978;8.472;2022-12-20T23:51:12;14.65;;;9.20;;
4857;SDS011;58975;51.978;8.472;2022-12-20T23:56:09;20.15;;;8.88;;
